Search for airport 
image banner adimage banner ad
image banner ad

SVLO - La Orchila Base Aerea Cap. De Navio Antonio Diaz

Located in Dependencia Federal, Venezuela

ICAO - SVLO, IATA -

Data provided by Airmate  

General information

Coordinates: N11°48'32" W66°10'45"
Elevation is 7 feet MSL.
 
Rated:
View ratings: [VIEW]


View others Airports in Dependencias Federales

Operational data

Open for public use
Current time UTC:
Current local time:
Weather
METAR: SVLO 130002Z AUTO 03008KT NCD 32/29 Q1010
View NOTAMs / SUP AIP / TFR affecting this airport [VIEW]
Communications frequencies: [VIEW]

Runways:

RWY identifierQFULength (ft)Width (ft)SurfaceLDA (ft)
0872°9843148ASP
2610499148

Airport contact information

Address: Dependencia Federal Venezuela

Satellite view of SVLO